LAN3201 SYCJ-SVMI
Flight info
| Callsign | LAN3201 |
|---|---|
| Flight time | N/A |
| Altitude | 24000 |
| Route | LIKEV G443 AKROK/N0454F360 UG443 CBC |
| Aircraft | A320/M-SDE3FGHIRWY/LB1 |
Departure
| Time | 2026-05-06 20:59 |
|---|---|
| Airport | Cheddi Jagan International Airport (SYCJ) |
Arrival
| Time | N/A |
|---|---|
| Airport | Maiquetía Simón Bolívar International Airport (SVMI) |
| Time | Latitude | Longitude | Altitude | Speed | Heading |
|---|---|---|---|---|---|
| 2026-05-06 20:41 | 6.50385 | -58.25187 | 105 ft | 0 kts | 317° |
| 2026-05-06 20:49 | 6.50369 | -58.25169 | 104 ft | 4 kts | 289° |
| 2026-05-06 20:50 | 6.50368 | -58.25144 | 104 ft | 4 kts | 237° |
| 2026-05-06 20:50 | 6.50376 | -58.25134 | 103 ft | 1 kts | 225° |
| 2026-05-06 20:50 | 6.50377 | -58.25133 | 103 ft | 0 kts | 225° |
| 2026-05-06 20:53 | 6.50372 | -58.25138 | 105 ft | 4 kts | 225° |
| 2026-05-06 20:53 | 6.50334 | -58.25176 | 105 ft | 10 kts | 225° |
| 2026-05-06 20:53 | 6.50289 | -58.25222 | 105 ft | 8 kts | 225° |
| 2026-05-06 20:53 | 6.50251 | -58.25259 | 105 ft | 7 kts | 225° |
| 2026-05-06 20:54 | 6.50223 | -58.25287 | 105 ft | 6 kts | 225° |
| 2026-05-06 20:54 | 6.50196 | -58.25315 | 105 ft | 7 kts | 225° |
| 2026-05-06 20:54 | 6.50150 | -58.25358 | 105 ft | 9 kts | 208° |
| 2026-05-06 20:54 | 6.50100 | -58.25344 | 105 ft | 7 kts | 167° |
| 2026-05-06 20:55 | 6.50057 | -58.25366 | 105 ft | 9 kts | 223° |
| 2026-05-06 20:55 | 6.50005 | -58.25422 | 105 ft | 13 kts | 227° |
| 2026-05-06 20:55 | 6.49936 | -58.25492 | 105 ft | 15 kts | 225° |
| 2026-05-06 20:55 | 6.49853 | -58.25574 | 106 ft | 18 kts | 223° |
| 2026-05-06 20:56 | 6.49753 | -58.25673 | 105 ft | 22 kts | 225° |
| 2026-05-06 20:56 | 6.49648 | -58.25779 | 105 ft | 20 kts | 225° |
| 2026-05-06 20:56 | 6.49554 | -58.25874 | 105 ft | 18 kts | 225° |
| 2026-05-06 20:56 | 6.49470 | -58.25960 | 104 ft | 16 kts | 225° |
| 2026-05-06 20:57 | 6.49395 | -58.26036 | 104 ft | 14 kts | 225° |
| 2026-05-06 20:57 | 6.49330 | -58.26101 | 104 ft | 12 kts | 224° |
| 2026-05-06 20:57 | 6.49259 | -58.26120 | 104 ft | 10 kts | 159° |
| 2026-05-06 20:57 | 6.49217 | -58.26074 | 105 ft | 8 kts | 105° |
| 2026-05-06 20:58 | 6.49242 | -58.26028 | 105 ft | 12 kts | 42° |
| 2026-05-06 20:58 | 6.49460 | -58.25814 | 105 ft | 76 kts | 45° |
| 2026-05-06 20:58 | 6.49968 | -58.25304 | 106 ft | 128 kts | 45° |
| 2026-05-06 20:58 | 6.50701 | -58.24570 | 114 ft | 168 kts | 46° |
| 2026-05-06 20:59 | 6.51493 | -58.23713 | 718 ft | 162 kts | 47° |
| 2026-05-06 20:59 | 6.52222 | -58.22882 | 1442 ft | 158 kts | 50° |
| 2026-05-06 20:59 | 6.53004 | -58.22017 | 1845 ft | 173 kts | 47° |
| 2026-05-06 20:59 | 6.53851 | -58.21134 | 2377 ft | 177 kts | 47° |
| 2026-05-06 21:00 | 6.54725 | -58.20235 | 2786 ft | 187 kts | 47° |
| 2026-05-06 21:00 | 6.55807 | -58.19391 | 2963 ft | 211 kts | 24° |
| 2026-05-06 21:00 | 6.57334 | -58.19251 | 3186 ft | 238 kts | 350° |
| 2026-05-06 21:00 | 6.58874 | -58.20029 | 3537 ft | 261 kts | 319° |
| 2026-05-06 21:01 | 6.59910 | -58.21556 | 4152 ft | 271 kts | 294° |
| 2026-05-06 21:01 | 6.60594 | -58.23335 | 4879 ft | 275 kts | 292° |
| 2026-05-06 21:01 | 6.61281 | -58.25144 | 5522 ft | 282 kts | 292° |
| 2026-05-06 21:01 | 6.61996 | -58.27022 | 6091 ft | 292 kts | 292° |
| 2026-05-06 21:02 | 6.62727 | -58.28948 | 6719 ft | 297 kts | 292° |
| 2026-05-06 21:02 | 6.63469 | -58.30902 | 7381 ft | 301 kts | 292° |
| 2026-05-06 21:02 | 6.64221 | -58.32875 | 8063 ft | 304 kts | 292° |
| 2026-05-06 21:02 | 6.64979 | -58.34868 | 8737 ft | 307 kts | 292° |
| 2026-05-06 21:03 | 6.65749 | -58.36890 | 9406 ft | 310 kts | 292° |
| 2026-05-06 21:03 | 6.66522 | -58.38922 | 10058 ft | 313 kts | 292° |
| 2026-05-06 21:03 | 6.67325 | -58.41033 | 10286 ft | 333 kts | 292° |
| 2026-05-06 21:03 | 6.68181 | -58.43277 | 10405 ft | 355 kts | 292° |
| 2026-05-06 21:04 | 6.69082 | -58.45641 | 10736 ft | 367 kts | 291° |
| 2026-05-06 21:04 | 6.69998 | -58.48050 | 11267 ft | 370 kts | 291° |
| 2026-05-06 21:04 | 6.70919 | -58.50479 | 11853 ft | 373 kts | 291° |
| 2026-05-06 21:04 | 6.71845 | -58.52923 | 12430 ft | 375 kts | 291° |
| 2026-05-06 21:05 | 6.72778 | -58.55387 | 13000 ft | 378 kts | 291° |
| 2026-05-06 21:05 | 6.73714 | -58.57864 | 13572 ft | 380 kts | 291° |
| 2026-05-06 21:05 | 6.74657 | -58.60360 | 14079 ft | 383 kts | 291° |
| 2026-05-06 21:05 | 6.75300 | -58.62055 | 14407 ft | 385 kts | 291° |
| 2026-05-06 21:06 | 6.76258 | -58.64578 | 14877 ft | 387 kts | 291° |
| 2026-05-06 21:06 | 6.77281 | -58.67091 | 15367 ft | 389 kts | 297° |
| 2026-05-06 21:06 | 6.78679 | -58.69424 | 15828 ft | 391 kts | 305° |
| 2026-05-06 21:06 | 6.80215 | -58.71688 | 16292 ft | 393 kts | 305° |
| 2026-05-06 21:07 | 6.81756 | -58.73965 | 16763 ft | 395 kts | 305° |
| 2026-05-06 21:07 | 6.83303 | -58.76258 | 17221 ft | 397 kts | 305° |
| 2026-05-06 21:07 | 6.84855 | -58.78563 | 17689 ft | 399 kts | 305° |
| 2026-05-06 21:07 | 6.86416 | -58.80880 | 18140 ft | 401 kts | 305° |
| 2026-05-06 21:08 | 6.87985 | -58.83209 | 18538 ft | 403 kts | 305° |
| 2026-05-06 21:08 | 6.89561 | -58.85549 | 18902 ft | 405 kts | 305° |
| 2026-05-06 21:08 | 6.91145 | -58.87903 | 19270 ft | 407 kts | 304° |
| 2026-05-06 21:08 | 6.92739 | -58.90268 | 19629 ft | 409 kts | 304° |
| 2026-05-06 21:09 | 6.94342 | -58.92645 | 19989 ft | 411 kts | 304° |
| 2026-05-06 21:09 | 6.95953 | -58.95035 | 20349 ft | 413 kts | 304° |
| 2026-05-06 21:09 | 6.97570 | -58.97437 | 20712 ft | 416 kts | 304° |
| 2026-05-06 21:09 | 6.99215 | -58.99889 | 21062 ft | 418 kts | 304° |
| 2026-05-06 21:10 | 7.00844 | -59.02319 | 21406 ft | 420 kts | 304° |
| 2026-05-06 21:10 | 7.02480 | -59.04756 | 21729 ft | 422 kts | 303° |
| 2026-05-06 21:10 | 7.04135 | -59.07213 | 22062 ft | 424 kts | 303° |
| 2026-05-06 21:10 | 7.05791 | -59.09671 | 22393 ft | 426 kts | 303° |
| 2026-05-06 21:11 | 7.07462 | -59.12153 | 22718 ft | 428 kts | 303° |
| 2026-05-06 21:11 | 7.09132 | -59.14638 | 23035 ft | 430 kts | 303° |
| 2026-05-06 21:11 | 7.10815 | -59.17147 | 23347 ft | 432 kts | 303° |
| 2026-05-06 21:11 | 7.12502 | -59.19661 | 23648 ft | 434 kts | 303° |
| 2026-05-06 21:12 | 7.14198 | -59.22185 | 23883 ft | 436 kts | 303° |
| 2026-05-06 21:12 | 7.15894 | -59.24710 | 23950 ft | 432 kts | 303° |
| 2026-05-06 21:12 | 7.17570 | -59.27202 | 23971 ft | 428 kts | 303° |
| 2026-05-06 21:12 | 7.19246 | -59.29691 | 24015 ft | 434 kts | 303° |
| 2026-05-06 21:13 | 7.20952 | -59.32231 | 24129 ft | 440 kts | 303° |
| 2026-05-06 21:13 | 7.22673 | -59.34799 | 24242 ft | 446 kts | 303° |
| 2026-05-06 21:13 | 7.24421 | -59.37408 | 24361 ft | 451 kts | 302° |
| 2026-05-06 21:13 | 7.26177 | -59.40025 | 24583 ft | 452 kts | 303° |
| 2026-05-06 21:14 | 7.27943 | -59.42656 | 24868 ft | 453 kts | 303° |
| 2026-05-06 21:14 | 7.29701 | -59.45276 | 25171 ft | 452 kts | 302° |
| 2026-05-06 21:14 | 7.31464 | -59.47905 | 25472 ft | 452 kts | 302° |
| 2026-05-06 21:14 | 7.33215 | -59.50520 | 25793 ft | 451 kts | 302° |
| 2026-05-06 21:15 | 7.34970 | -59.53143 | 26118 ft | 450 kts | 303° |
| 2026-05-06 21:15 | 7.36721 | -59.55747 | 26448 ft | 450 kts | 302° |
| 2026-05-06 21:15 | 7.38478 | -59.58358 | 26781 ft | 449 kts | 303° |
| 2026-05-06 21:15 | 7.40221 | -59.60954 | 27116 ft | 448 kts | 302° |
| 2026-05-06 21:16 | 7.41967 | -59.63558 | 27457 ft | 447 kts | 302° |
| 2026-05-06 21:16 | 7.43704 | -59.66152 | 27798 ft | 446 kts | 302° |
| 2026-05-06 21:16 | 7.45461 | -59.68779 | 27949 ft | 446 kts | 302° |
| 2026-05-06 21:16 | 7.47174 | -59.71341 | 27965 ft | 446 kts | 302° |
| 2026-05-06 21:17 | 7.48926 | -59.73960 | 27965 ft | 445 kts | 302° |
| 2026-05-06 21:17 | 7.50629 | -59.76514 | 27963 ft | 445 kts | 302° |
| 2026-05-06 21:17 | 7.52378 | -59.79130 | 27963 ft | 444 kts | 302° |
| 2026-05-06 21:17 | 7.54105 | -59.81711 | 27964 ft | 444 kts | 302° |
| 2026-05-06 21:18 | 7.55835 | -59.84290 | 27962 ft | 444 kts | 302° |
| 2026-05-06 21:18 | 7.57564 | -59.86866 | 27966 ft | 444 kts | 302° |
| 2026-05-06 21:18 | 7.59292 | -59.89443 | 27967 ft | 444 kts | 302° |
| 2026-05-06 21:18 | 7.61018 | -59.92019 | 27968 ft | 443 kts | 302° |
| 2026-05-06 21:19 | 7.62739 | -59.94596 | 27960 ft | 443 kts | 302° |
| 2026-05-06 21:19 | 7.64458 | -59.97170 | 27960 ft | 443 kts | 302° |
| 2026-05-06 21:19 | 7.66180 | -59.99742 | 27959 ft | 442 kts | 302° |
| 2026-05-06 21:19 | 7.67901 | -60.02311 | 27956 ft | 442 kts | 302° |
| 2026-05-06 21:20 | 7.69617 | -60.04882 | 27957 ft | 442 kts | 302° |
| 2026-05-06 21:20 | 7.71329 | -60.07453 | 27954 ft | 442 kts | 302° |
| 2026-05-06 21:20 | 7.73043 | -60.10023 | 27954 ft | 441 kts | 302° |
| 2026-05-06 21:20 | 7.74758 | -60.12589 | 27955 ft | 441 kts | 302° |
| 2026-05-06 21:21 | 7.76473 | -60.15152 | 27954 ft | 441 kts | 302° |
| 2026-05-06 21:21 | 7.78188 | -60.17714 | 27956 ft | 441 kts | 302° |
| 2026-05-06 21:21 | 7.79898 | -60.20277 | 27958 ft | 440 kts | 302° |
| 2026-05-06 21:21 | 7.81604 | -60.22841 | 27955 ft | 440 kts | 302° |
| 2026-05-06 21:22 | 7.83312 | -60.25402 | 27955 ft | 440 kts | 302° |
| 2026-05-06 21:22 | 7.85020 | -60.27959 | 27952 ft | 440 kts | 302° |
| 2026-05-06 21:22 | 7.86730 | -60.30516 | 27954 ft | 439 kts | 302° |
| 2026-05-06 21:22 | 7.88430 | -60.33067 | 27955 ft | 439 kts | 302° |
| 2026-05-06 21:23 | 7.90132 | -60.35631 | 27955 ft | 439 kts | 302° |
| 2026-05-06 21:23 | 7.91847 | -60.38224 | 27955 ft | 439 kts | 302° |
| 2026-05-06 21:23 | 7.93515 | -60.40752 | 27954 ft | 438 kts | 302° |
| 2026-05-06 21:23 | 7.95228 | -60.43341 | 27950 ft | 438 kts | 302° |
| 2026-05-06 21:24 | 7.96926 | -60.45894 | 27952 ft | 438 kts | 302° |
| 2026-05-06 21:24 | 7.98624 | -60.48445 | 27952 ft | 438 kts | 302° |
| 2026-05-06 21:24 | 8.00326 | -60.51007 | 27963 ft | 443 kts | 302° |
| 2026-05-06 21:24 | 8.02054 | -60.53614 | 27966 ft | 451 kts | 302° |
| 2026-05-06 21:25 | 8.03809 | -60.56267 | 27966 ft | 458 kts | 302° |
| 2026-05-06 21:25 | 8.05590 | -60.58960 | 27965 ft | 465 kts | 302° |
| 2026-05-06 21:25 | 8.07397 | -60.61690 | 27964 ft | 471 kts | 302° |
| 2026-05-06 21:25 | 8.09225 | -60.64455 | 27966 ft | 476 kts | 302° |
| 2026-05-06 21:26 | 8.11073 | -60.67252 | 27963 ft | 482 kts | 302° |
| 2026-05-06 21:26 | 8.12938 | -60.70076 | 27964 ft | 484 kts | 302° |
| 2026-05-06 21:26 | 8.14810 | -60.72906 | 27964 ft | 485 kts | 302° |
| 2026-05-06 21:26 | 8.16688 | -60.75739 | 27965 ft | 486 kts | 302° |
| 2026-05-06 21:27 | 8.18568 | -60.78571 | 27966 ft | 486 kts | 302° |
| 2026-05-06 21:27 | 8.20447 | -60.81402 | 27962 ft | 486 kts | 302° |
| 2026-05-06 21:27 | 8.22325 | -60.84234 | 27962 ft | 485 kts | 302° |
| 2026-05-06 21:27 | 8.24197 | -60.87070 | 27960 ft | 485 kts | 302° |
| 2026-05-06 21:28 | 8.26067 | -60.89905 | 27964 ft | 485 kts | 302° |
| 2026-05-06 21:28 | 8.27938 | -60.92740 | 27960 ft | 485 kts | 302° |
| 2026-05-06 21:28 | 8.29807 | -60.95572 | 27961 ft | 485 kts | 302° |
| 2026-05-06 21:28 | 8.31677 | -60.98403 | 27958 ft | 484 kts | 302° |
| 2026-05-06 21:29 | 8.33546 | -61.01232 | 27954 ft | 484 kts | 302° |
| 2026-05-06 21:29 | 8.35415 | -61.04061 | 27952 ft | 484 kts | 302° |
| 2026-05-06 21:29 | 8.37283 | -61.06891 | 27950 ft | 484 kts | 302° |
| 2026-05-06 21:29 | 8.39171 | -61.09758 | 27953 ft | 484 kts | 302° |
| 2026-05-06 21:30 | 8.41034 | -61.12588 | 27950 ft | 484 kts | 302° |
| 2026-05-06 21:30 | 8.42896 | -61.15416 | 27950 ft | 483 kts | 302° |
| 2026-05-06 21:30 | 8.44760 | -61.18240 | 27951 ft | 483 kts | 302° |
| 2026-05-06 21:30 | 8.46625 | -61.21064 | 27950 ft | 483 kts | 302° |
| 2026-05-06 21:31 | 8.48489 | -61.23885 | 27953 ft | 483 kts | 302° |
| 2026-05-06 21:31 | 8.50355 | -61.26704 | 27954 ft | 483 kts | 302° |
| 2026-05-06 21:31 | 8.52223 | -61.29520 | 27954 ft | 482 kts | 302° |
| 2026-05-06 21:31 | 8.54089 | -61.32330 | 27954 ft | 482 kts | 302° |
| 2026-05-06 21:32 | 8.55954 | -61.35145 | 27951 ft | 482 kts | 302° |
| 2026-05-06 21:32 | 8.59683 | -61.40768 | 27951 ft | 481 kts | 302° |
| 2026-05-06 21:32 | 8.61544 | -61.43581 | 27951 ft | 481 kts | 302° |
| 2026-05-06 21:33 | 8.63400 | -61.46393 | 27949 ft | 481 kts | 302° |
| 2026-05-06 21:33 | 8.65254 | -61.49207 | 27951 ft | 481 kts | 302° |
| 2026-05-06 21:33 | 8.67106 | -61.52020 | 27946 ft | 481 kts | 302° |
| 2026-05-06 21:33 | 8.68959 | -61.54829 | 27947 ft | 480 kts | 302° |
| 2026-05-06 21:34 | 8.70816 | -61.57636 | 27942 ft | 480 kts | 302° |
| 2026-05-06 21:34 | 8.72677 | -61.60447 | 27943 ft | 480 kts | 302° |
| 2026-05-06 21:34 | 8.74530 | -61.63245 | 27942 ft | 480 kts | 302° |
| 2026-05-06 21:34 | 8.76389 | -61.66056 | 27943 ft | 480 kts | 302° |
| 2026-05-06 21:35 | 8.78239 | -61.68854 | 27939 ft | 480 kts | 302° |
| 2026-05-06 21:35 | 8.80091 | -61.71665 | 27937 ft | 480 kts | 302° |
| 2026-05-06 21:35 | 8.81936 | -61.74467 | 27938 ft | 479 kts | 302° |
| 2026-05-06 21:35 | 8.83786 | -61.77272 | 27933 ft | 479 kts | 302° |
| 2026-05-06 21:36 | 8.85636 | -61.80076 | 27934 ft | 479 kts | 302° |
| 2026-05-06 21:36 | 8.87486 | -61.82879 | 27932 ft | 479 kts | 302° |
| 2026-05-06 21:36 | 8.89334 | -61.85682 | 27930 ft | 479 kts | 302° |
| 2026-05-06 21:36 | 8.91202 | -61.88521 | 27925 ft | 479 kts | 302° |
| 2026-05-06 21:37 | 8.93048 | -61.91325 | 27924 ft | 479 kts | 302° |
| 2026-05-06 21:37 | 8.94274 | -61.93184 | 27930 ft | 479 kts | 302° |
| 2026-05-06 21:37 | 8.96120 | -61.95987 | 27924 ft | 479 kts | 302° |
| 2026-05-06 21:37 | 8.97966 | -61.98791 | 27928 ft | 479 kts | 302° |
| 2026-05-06 21:38 | 8.99811 | -62.01594 | 27924 ft | 479 kts | 302° |
| 2026-05-06 21:38 | 9.01656 | -62.04395 | 27930 ft | 479 kts | 302° |
| 2026-05-06 21:38 | 9.03502 | -62.07196 | 27923 ft | 478 kts | 302° |
| 2026-05-06 21:38 | 9.05346 | -62.09997 | 27929 ft | 478 kts | 302° |
| 2026-05-06 21:39 | 9.07189 | -62.12799 | 27925 ft | 478 kts | 302° |
| 2026-05-06 21:39 | 9.09028 | -62.15600 | 27924 ft | 478 kts | 302° |
| 2026-05-06 21:39 | 9.10867 | -62.18402 | 27923 ft | 478 kts | 302° |
| 2026-05-06 21:39 | 9.12707 | -62.21202 | 27923 ft | 478 kts | 302° |
| 2026-05-06 21:40 | 9.14550 | -62.24000 | 27923 ft | 478 kts | 302° |
| 2026-05-06 21:40 | 9.16394 | -62.26796 | 27923 ft | 478 kts | 302° |
| 2026-05-06 21:40 | 9.18236 | -62.29594 | 27923 ft | 478 kts | 302° |
| 2026-05-06 21:40 | 9.20075 | -62.32392 | 27926 ft | 478 kts | 302° |
| 2026-05-06 21:41 | 9.21913 | -62.35191 | 27924 ft | 477 kts | 302° |
| 2026-05-06 21:41 | 9.23773 | -62.38026 | 27924 ft | 477 kts | 302° |
| 2026-05-06 21:41 | 9.25608 | -62.40828 | 27920 ft | 477 kts | 302° |
| 2026-05-06 21:41 | 9.27440 | -62.43630 | 27917 ft | 477 kts | 302° |
| 2026-05-06 21:42 | 9.29274 | -62.46432 | 27921 ft | 477 kts | 302° |
| 2026-05-06 21:42 | 9.31111 | -62.49233 | 27921 ft | 477 kts | 302° |
| 2026-05-06 21:42 | 9.32949 | -62.52032 | 27918 ft | 477 kts | 302° |
| 2026-05-06 21:42 | 9.34786 | -62.54834 | 27922 ft | 477 kts | 302° |
| 2026-05-06 21:43 | 9.36621 | -62.57639 | 27922 ft | 477 kts | 302° |
| 2026-05-06 21:43 | 9.38456 | -62.60442 | 27921 ft | 478 kts | 302° |
| 2026-05-06 21:43 | 9.40293 | -62.63243 | 27919 ft | 478 kts | 302° |
| 2026-05-06 21:43 | 9.42131 | -62.66045 | 27921 ft | 478 kts | 302° |
| 2026-05-06 21:44 | 9.43969 | -62.68848 | 27920 ft | 478 kts | 302° |
| 2026-05-06 21:44 | 9.45807 | -62.71651 | 27923 ft | 478 kts | 302° |
| 2026-05-06 21:44 | 9.47644 | -62.74453 | 27927 ft | 478 kts | 302° |
| 2026-05-06 21:44 | 9.49481 | -62.77257 | 27923 ft | 478 kts | 302° |
| 2026-05-06 21:45 | 9.51319 | -62.80061 | 27924 ft | 478 kts | 302° |
| 2026-05-06 21:45 | 9.53154 | -62.82867 | 27924 ft | 478 kts | 302° |
| 2026-05-06 21:45 | 9.54982 | -62.85669 | 27925 ft | 478 kts | 302° |
| 2026-05-06 21:45 | 9.56818 | -62.88481 | 27924 ft | 478 kts | 302° |
| 2026-05-06 21:46 | 9.58653 | -62.91288 | 27922 ft | 478 kts | 302° |
| 2026-05-06 21:46 | 9.60489 | -62.94095 | 27930 ft | 478 kts | 302° |
| 2026-05-06 21:46 | 9.62326 | -62.96902 | 27924 ft | 478 kts | 302° |
| 2026-05-06 21:46 | 9.64160 | -62.99711 | 27925 ft | 478 kts | 302° |
| 2026-05-06 21:47 | 9.65995 | -63.02519 | 27928 ft | 478 kts | 302° |
| 2026-05-06 21:47 | 9.67832 | -63.05325 | 27932 ft | 478 kts | 302° |
| 2026-05-06 21:47 | 9.69669 | -63.08133 | 27930 ft | 478 kts | 302° |
| 2026-05-06 21:47 | 9.71502 | -63.10943 | 27936 ft | 478 kts | 302° |
| 2026-05-06 21:48 | 9.73318 | -63.13813 | 27930 ft | 477 kts | 298° |
| 2026-05-06 21:48 | 9.74662 | -63.16875 | 27934 ft | 475 kts | 287° |
| 2026-05-06 21:48 | 9.75504 | -63.20113 | 27935 ft | 475 kts | 283° |
| 2026-05-06 21:48 | 9.76288 | -63.23364 | 27936 ft | 475 kts | 283° |
| 2026-05-06 21:49 | 9.77076 | -63.26617 | 27936 ft | 475 kts | 283° |
| 2026-05-06 21:49 | 9.77866 | -63.29869 | 27939 ft | 475 kts | 283° |
| 2026-05-06 21:49 | 9.78655 | -63.33121 | 27939 ft | 475 kts | 283° |
| 2026-05-06 21:49 | 9.79442 | -63.36374 | 27939 ft | 475 kts | 283° |
| 2026-05-06 21:50 | 9.80230 | -63.39628 | 27940 ft | 475 kts | 283° |
| 2026-05-06 21:50 | 9.81018 | -63.42880 | 27944 ft | 475 kts | 283° |
| 2026-05-06 21:50 | 9.81804 | -63.46134 | 27944 ft | 475 kts | 283° |
| 2026-05-06 21:50 | 9.82588 | -63.49387 | 27948 ft | 475 kts | 283° |
| 2026-05-06 21:51 | 9.83370 | -63.52642 | 27947 ft | 475 kts | 283° |
| 2026-05-06 21:51 | 9.84152 | -63.55896 | 27953 ft | 475 kts | 283° |
| 2026-05-06 21:51 | 9.84937 | -63.59151 | 27953 ft | 475 kts | 283° |
| 2026-05-06 21:51 | 9.85722 | -63.62406 | 27956 ft | 475 kts | 283° |
| 2026-05-06 21:52 | 9.86507 | -63.65659 | 27956 ft | 475 kts | 283° |
| 2026-05-06 21:52 | 9.87292 | -63.68913 | 27957 ft | 475 kts | 283° |
| 2026-05-06 21:52 | 9.88079 | -63.72166 | 27966 ft | 475 kts | 283° |
| 2026-05-06 21:52 | 9.88861 | -63.75403 | 27962 ft | 475 kts | 283° |
| 2026-05-06 21:53 | 9.89640 | -63.78650 | 27966 ft | 475 kts | 283° |
| 2026-05-06 21:53 | 9.90423 | -63.81909 | 27966 ft | 475 kts | 283° |
| 2026-05-06 21:53 | 9.91203 | -63.85154 | 27965 ft | 474 kts | 283° |
| 2026-05-06 21:53 | 9.91986 | -63.88404 | 27972 ft | 474 kts | 283° |
| 2026-05-06 21:54 | 9.92769 | -63.91656 | 27974 ft | 474 kts | 283° |
| 2026-05-06 21:54 | 9.93552 | -63.94905 | 27978 ft | 474 kts | 283° |
| 2026-05-06 21:54 | 9.94345 | -63.98201 | 27979 ft | 474 kts | 283° |
| 2026-05-06 21:54 | 9.95125 | -64.01449 | 27972 ft | 474 kts | 283° |
| 2026-05-06 21:55 | 9.95900 | -64.04693 | 27977 ft | 474 kts | 283° |
| 2026-05-06 21:55 | 9.96675 | -64.07947 | 27974 ft | 474 kts | 283° |
| 2026-05-06 21:55 | 9.97450 | -64.11196 | 27973 ft | 474 kts | 283° |
| 2026-05-06 21:55 | 9.98228 | -64.14444 | 27965 ft | 474 kts | 283° |
| 2026-05-06 21:56 | 9.99005 | -64.17686 | 27966 ft | 474 kts | 283° |
| 2026-05-06 21:56 | 9.99786 | -64.20944 | 27960 ft | 474 kts | 283° |
| 2026-05-06 21:56 | 10.00563 | -64.24187 | 27959 ft | 474 kts | 283° |
| 2026-05-06 21:56 | 10.01343 | -64.27444 | 27955 ft | 474 kts | 283° |
| 2026-05-06 21:57 | 10.02118 | -64.30690 | 27951 ft | 474 kts | 283° |
| 2026-05-06 21:57 | 10.02894 | -64.33943 | 27949 ft | 474 kts | 283° |
| 2026-05-06 21:57 | 10.03668 | -64.37198 | 27945 ft | 475 kts | 283° |
| 2026-05-06 21:57 | 10.04442 | -64.40453 | 27942 ft | 475 kts | 283° |
| 2026-05-06 21:58 | 10.05217 | -64.43709 | 27939 ft | 475 kts | 283° |
| 2026-05-06 21:58 | 10.05992 | -64.46968 | 27936 ft | 475 kts | 283° |
| 2026-05-06 21:58 | 10.06766 | -64.50228 | 27933 ft | 475 kts | 283° |
| 2026-05-06 21:58 | 10.07540 | -64.53490 | 27931 ft | 476 kts | 283° |
| 2026-05-06 21:59 | 10.08315 | -64.56755 | 27932 ft | 476 kts | 283° |
| 2026-05-06 21:59 | 10.09091 | -64.60019 | 27928 ft | 476 kts | 283° |
| 2026-05-06 21:59 | 10.09869 | -64.63293 | 27931 ft | 476 kts | 283° |
| 2026-05-06 21:59 | 10.10643 | -64.66554 | 27928 ft | 477 kts | 283° |
| 2026-05-06 22:00 | 10.11499 | -64.69809 | 27922 ft | 477 kts | 288° |
| 2026-05-06 22:00 | 10.12587 | -64.72980 | 27925 ft | 477 kts | 289° |
| 2026-05-06 22:00 | 10.13679 | -64.76158 | 27927 ft | 477 kts | 289° |
| 2026-05-06 22:00 | 10.14764 | -64.79338 | 27928 ft | 477 kts | 288° |
| 2026-05-06 22:01 | 10.15846 | -64.82522 | 27925 ft | 477 kts | 288° |
| 2026-05-06 22:01 | 10.16945 | -64.85750 | 27926 ft | 477 kts | 289° |
| 2026-05-06 22:01 | 10.18026 | -64.88925 | 27926 ft | 477 kts | 289° |
| 2026-05-06 22:01 | 10.19111 | -64.92111 | 27930 ft | 477 kts | 288° |
| 2026-05-06 22:02 | 10.20193 | -64.95292 | 27932 ft | 477 kts | 288° |
| 2026-05-06 22:02 | 10.21274 | -64.98471 | 27930 ft | 477 kts | 288° |
| 2026-05-06 22:02 | 10.22358 | -65.01651 | 27935 ft | 476 kts | 289° |
| 2026-05-06 22:02 | 10.23442 | -65.04821 | 27928 ft | 476 kts | 289° |
| 2026-05-06 22:03 | 10.24530 | -65.08005 | 27926 ft | 476 kts | 289° |
| 2026-05-06 22:03 | 10.25610 | -65.11176 | 27928 ft | 476 kts | 288° |
| 2026-05-06 22:03 | 10.26694 | -65.14361 | 27930 ft | 476 kts | 288° |
| 2026-05-06 22:03 | 10.27772 | -65.17535 | 27935 ft | 476 kts | 288° |
| 2026-05-06 22:04 | 10.28851 | -65.20715 | 27939 ft | 476 kts | 288° |
| 2026-05-06 22:04 | 10.29930 | -65.23894 | 27939 ft | 476 kts | 288° |
| 2026-05-06 22:04 | 10.31009 | -65.27073 | 27936 ft | 476 kts | 288° |
| 2026-05-06 22:04 | 10.32088 | -65.30252 | 27937 ft | 476 kts | 288° |
| 2026-05-06 22:05 | 10.33168 | -65.33433 | 27931 ft | 476 kts | 288° |